createdAt,value
2022-09-06T00:01:55.907Z,20.40
2022-09-06T00:05:52.910Z,20.35
2022-09-06T00:09:49.888Z,20.11
2022-09-06T00:13:48.282Z,20.55
2022-09-06T00:17:45.244Z,20.47
2022-09-06T00:21:42.215Z,20.42
2022-09-06T00:25:39.176Z,20.00
2022-09-06T00:29:36.295Z,19.97
2022-09-06T00:33:33.248Z,19.82
2022-09-06T00:37:30.282Z,19.89
2022-09-06T00:41:27.245Z,20.01
2022-09-06T00:45:27.955Z,20.06
2022-09-06T00:49:31.782Z,19.98
2022-09-06T00:53:30.746Z,19.54
2022-09-06T00:57:30.994Z,20.04
2022-09-06T01:01:28.447Z,19.98
2022-09-06T01:05:42.452Z,19.70
2022-09-06T01:09:47.473Z,19.89
2022-09-06T01:14:11.380Z,19.69
2022-09-06T01:18:30.171Z,19.60
2022-09-06T01:23:20.343Z,19.54
2022-09-06T01:27:20.333Z,19.60
2022-09-06T01:31:38.240Z,19.41
2022-09-06T01:35:57.145Z,19.13
2022-09-06T01:39:54.185Z,19.48
2022-09-06T01:43:54.253Z,19.42
2022-09-06T01:48:23.445Z,19.30
2022-09-06T01:53:09.356Z,19.47
2022-09-06T01:57:29.219Z,19.36
2022-09-06T02:02:10.339Z,19.27
2022-09-06T02:06:17.205Z,19.22
2022-09-06T02:10:32.190Z,19.31
2022-09-06T02:14:46.316Z,19.31
2022-09-06T02:18:52.381Z,19.19
2022-09-06T02:22:53.772Z,19.18
2022-09-06T02:26:53.191Z,19.08
2022-09-06T02:30:58.279Z,19.04
2022-09-06T02:34:57.708Z,19.21
2022-09-06T02:38:55.029Z,19.02
2022-09-06T02:42:52.036Z,18.78
2022-09-06T02:46:48.972Z,18.72
2022-09-06T02:50:45.983Z,18.62
2022-09-06T02:54:43.026Z,18.69
2022-09-06T02:58:40.976Z,18.70
2022-09-06T03:02:38.021Z,18.65
2022-09-06T03:06:37.485Z,18.79
2022-09-06T03:10:34.566Z,18.56
2022-09-06T03:14:31.570Z,18.68
2022-09-06T03:18:31.281Z,18.77
2022-09-06T03:22:31.200Z,18.87
2022-09-06T03:26:30.216Z,18.69
2022-09-06T03:30:27.400Z,18.80
2022-09-06T03:34:24.473Z,18.82
2022-09-06T03:38:23.508Z,18.65
2022-09-06T03:42:20.765Z,18.68
2022-09-06T03:46:18.013Z,18.66
2022-09-06T03:50:15.168Z,18.54
2022-09-06T03:54:12.227Z,18.28
2022-09-06T03:58:09.232Z,18.09
2022-09-06T04:02:06.634Z,18.34
2022-09-06T04:06:05.796Z,18.36
2022-09-06T04:10:04.100Z,18.42
2022-09-06T04:14:01.103Z,18.43
2022-09-06T04:17:58.557Z,18.30
2022-09-06T04:21:55.694Z,18.53
2022-09-06T04:25:59.653Z,18.62
2022-09-06T04:29:57.581Z,18.44
2022-09-06T04:33:54.667Z,18.65
2022-09-06T04:37:51.669Z,18.63
2022-09-06T04:41:48.861Z,18.70
2022-09-06T04:45:46.029Z,18.50
2022-09-06T04:49:43.466Z,18.44
2022-09-06T04:53:40.535Z,18.66
2022-09-06T04:57:45.066Z,18.49
2022-09-06T05:01:43.595Z,18.33
2022-09-06T05:05:40.560Z,18.62
2022-09-06T05:09:37.558Z,18.72
2022-09-06T05:13:35.919Z,19.00
2022-09-06T05:17:32.959Z,19.25
2022-09-06T05:21:29.954Z,19.17
2022-09-06T05:25:27.017Z,19.37
2022-09-06T05:29:27.534Z,19.52
2022-09-06T05:33:26.979Z,19.88
2022-09-06T05:37:24.149Z,20.35
2022-09-06T05:41:22.895Z,20.43
2022-09-06T05:45:19.962Z,20.93
2022-09-06T05:49:17.087Z,21.16
2022-09-06T05:53:14.055Z,21.30
2022-09-06T05:57:11.106Z,21.57
2022-09-06T06:01:26.933Z,21.76
2022-09-06T06:05:24.332Z,21.86
2022-09-06T06:09:21.320Z,21.97
2022-09-06T06:13:20.797Z,21.89
2022-09-06T06:17:17.834Z,22.02
2022-09-06T06:21:24.610Z,22.21
2022-09-06T06:25:26.201Z,22.17
2022-09-06T06:29:25.330Z,22.08
2022-09-06T06:33:22.334Z,22.32
2022-09-06T06:37:19.361Z,22.33
2022-09-06T06:41:19.645Z,22.70
2022-09-06T06:45:16.924Z,22.83
2022-09-06T06:49:13.936Z,23.52
2022-09-06T06:53:11.959Z,23.95
2022-09-06T06:57:09.553Z,24.27
2022-09-06T07:01:06.973Z,24.53
2022-09-06T07:09:22.615Z,24.48
2022-09-06T07:13:19.631Z,24.49
2022-09-06T07:17:16.624Z,24.64
2022-09-06T07:25:35.346Z,24.70
2022-09-06T07:29:32.613Z,25.11
2022-09-06T07:33:29.729Z,25.37
2022-09-06T07:37:26.729Z,25.94
2022-09-06T07:41:23.908Z,26.00
2022-09-06T07:45:20.884Z,25.84
2022-09-06T07:49:17.957Z,26.01
2022-09-06T07:53:18.430Z,26.00
2022-09-06T07:57:20.294Z,26.44
2022-09-06T08:01:31.465Z,26.83
2022-09-06T08:09:45.506Z,26.05
2022-09-06T08:13:42.850Z,26.01
2022-09-06T08:17:39.902Z,26.58
2022-09-06T08:21:36.890Z,26.83
2022-09-06T08:25:33.897Z,27.44
2022-09-06T08:29:30.989Z,28.06
2022-09-06T08:33:28.007Z,28.91
2022-09-06T08:37:25.302Z,29.08
2022-09-06T08:42:00.790Z,29.12
2022-09-06T08:45:59.946Z,29.19
2022-09-06T08:50:05.507Z,29.24
2022-09-06T08:54:13.584Z,29.18
2022-09-06T08:58:44.533Z,30.27
2022-09-06T09:02:52.948Z,30.77
2022-09-06T09:07:00.614Z,30.62
2022-09-06T09:11:12.181Z,30.61
2022-09-06T09:15:17.173Z,29.96
2022-09-06T09:19:14.187Z,30.30
2022-09-06T09:23:11.131Z,30.54
2022-09-06T09:27:11.398Z,29.69
2022-09-06T09:31:09.861Z,29.44
2022-09-06T09:35:37.293Z,29.35
2022-09-06T09:39:38.243Z,28.81
2022-09-06T09:43:59.147Z,28.56
2022-09-06T09:48:23.840Z,27.98
2022-09-06T09:52:31.962Z,28.12
2022-09-06T09:56:55.203Z,29.59
2022-09-06T10:01:21.592Z,30.34
2022-09-06T10:05:21.319Z,31.08
2022-09-06T10:09:34.900Z,32.49
2022-09-06T10:13:33.040Z,34.81
2022-09-06T10:17:51.783Z,36.59
2022-09-06T10:21:56.566Z,35.18
2022-09-06T10:26:06.387Z,34.78
2022-09-06T10:30:09.541Z,36.40
2022-09-06T10:34:27.256Z,36.08
2022-09-06T10:38:40.647Z,37.33
2022-09-06T10:42:53.952Z,38.40
2022-09-06T10:47:09.046Z,38.39
2022-09-06T10:51:41.470Z,37.02
2022-09-06T10:55:46.273Z,35.52
2022-09-06T10:59:55.405Z,36.01
2022-09-06T11:04:00.088Z,36.22
2022-09-06T11:12:49.763Z,36.56
2022-09-06T11:17:05.171Z,36.35
2022-09-06T11:21:47.574Z,37.18
2022-09-06T11:26:07.763Z,37.96
2022-09-06T11:30:06.926Z,39.29
2022-09-06T11:34:20.623Z,39.60
2022-09-06T11:38:23.655Z,40.50
2022-09-06T11:42:41.120Z,40.16
2022-09-06T11:46:41.190Z,41.33
2022-09-06T11:50:59.403Z,41.86
2022-09-06T11:54:56.549Z,41.76
2022-09-06T11:59:04.269Z,43.42
2022-09-06T12:07:18.587Z,43.63
2022-09-06T12:11:44.181Z,42.21
2022-09-06T12:15:55.329Z,39.64
2022-09-06T12:20:08.071Z,39.51
2022-09-06T12:24:08.714Z,39.92
2022-09-06T12:28:20.902Z,39.86
2022-09-06T12:32:27.522Z,40.16
2022-09-06T12:36:34.036Z,41.65
2022-09-06T12:40:37.704Z,43.56
2022-09-06T12:44:51.539Z,44.16
2022-09-06T12:49:10.349Z,42.73
2022-09-06T12:53:25.533Z,41.27
2022-09-06T12:57:26.287Z,40.59
2022-09-06T13:01:32.990Z,40.09
2022-09-06T13:05:30.979Z,41.31
2022-09-06T13:09:30.164Z,41.35
2022-09-06T13:13:27.592Z,41.76
2022-09-06T13:17:28.147Z,42.53
2022-09-06T13:21:33.081Z,42.89
2022-09-06T13:25:32.539Z,42.01
2022-09-06T13:29:31.951Z,41.90
2022-09-06T13:33:29.426Z,41.12
2022-09-06T13:37:33.809Z,39.93
2022-09-06T13:41:30.811Z,38.78
2022-09-06T13:45:30.022Z,38.53
2022-09-06T13:49:28.406Z,39.76
2022-09-06T13:53:26.820Z,41.05
2022-09-06T13:57:24.730Z,41.61
2022-09-06T14:01:21.961Z,41.39
2022-09-06T14:05:19.043Z,41.36
2022-09-06T14:09:16.252Z,42.47
2022-09-06T14:13:13.393Z,42.27
2022-09-06T14:17:10.514Z,42.86
2022-09-06T14:21:07.859Z,42.80
2022-09-06T14:25:07.073Z,42.53
2022-09-06T14:29:05.131Z,41.70
2022-09-06T14:33:02.130Z,41.12
2022-09-06T14:36:59.209Z,39.96
2022-09-06T14:41:04.317Z,40.29
2022-09-06T14:45:01.337Z,39.92
2022-09-06T14:49:08.624Z,40.25
2022-09-06T14:53:24.044Z,41.01
2022-09-06T14:57:23.708Z,42.12
2022-09-06T15:01:24.678Z,41.96
2022-09-06T15:05:21.746Z,41.89
2022-09-06T15:09:19.016Z,41.58
2022-09-06T15:13:17.065Z,41.56
2022-09-06T15:17:14.172Z,41.51
2022-09-06T15:21:17.170Z,41.68
2022-09-06T15:25:14.276Z,42.30
2022-09-06T15:29:12.053Z,42.60
2022-09-06T15:33:10.228Z,43.12
2022-09-06T15:37:07.232Z,43.83
2022-09-06T15:41:13.425Z,43.48
2022-09-06T15:45:11.534Z,43.60
2022-09-06T15:49:11.524Z,43.81
2022-09-06T15:53:08.575Z,42.41
2022-09-06T15:57:05.887Z,41.72
2022-09-06T16:01:12.468Z,42.01
2022-09-06T16:05:09.623Z,41.97
2022-09-06T16:09:11.056Z,42.04
2022-09-06T16:13:08.059Z,42.12
2022-09-06T16:17:05.131Z,42.07
2022-09-06T16:21:07.014Z,41.73
2022-09-06T16:25:04.545Z,41.51
2022-09-06T16:29:03.728Z,40.54
2022-09-06T16:33:00.691Z,40.28
2022-09-06T16:36:57.768Z,40.08
2022-09-06T16:40:55.280Z,39.67
2022-09-06T16:44:53.684Z,39.52
2022-09-06T16:48:52.323Z,38.95
2022-09-06T16:52:50.483Z,38.21
2022-09-06T16:56:47.917Z,37.73
2022-09-06T17:00:45.739Z,37.52
2022-09-06T17:04:42.964Z,37.25
2022-09-06T17:08:40.307Z,36.76
2022-09-06T17:12:37.360Z,36.40
2022-09-06T17:16:53.415Z,36.03
2022-09-06T17:21:02.081Z,35.38
2022-09-06T17:24:59.041Z,34.89
2022-09-06T17:28:57.098Z,34.05
2022-09-06T17:32:55.511Z,33.28
2022-09-06T17:36:52.898Z,32.79
2022-09-06T17:40:59.623Z,32.28
2022-09-06T17:44:56.631Z,31.88
2022-09-06T17:48:54.170Z,31.96
2022-09-06T17:52:53.577Z,31.58
2022-09-06T17:56:50.683Z,31.24
2022-09-06T18:00:47.683Z,30.71
2022-09-06T18:04:44.822Z,30.67
2022-09-06T18:08:44.239Z,30.44
2022-09-06T18:12:42.961Z,30.15
2022-09-06T18:16:40.599Z,29.98
2022-09-06T18:20:38.054Z,29.82
2022-09-06T18:24:35.076Z,29.82
2022-09-06T18:28:34.747Z,29.63
2022-09-06T18:32:31.982Z,29.23
2022-09-06T18:36:32.176Z,29.13
2022-09-06T18:40:29.645Z,28.88
2022-09-06T18:44:33.147Z,28.87
2022-09-06T18:48:33.101Z,28.63
2022-09-06T18:52:30.367Z,28.31
2022-09-06T18:56:27.945Z,28.52
2022-09-06T19:00:26.419Z,28.34
2022-09-06T19:04:23.537Z,28.40
2022-09-06T19:08:20.526Z,28.05
2022-09-06T19:12:17.620Z,28.02
2022-09-06T19:16:15.062Z,27.99
2022-09-06T19:20:12.274Z,27.69
2022-09-06T19:24:11.935Z,27.66
2022-09-06T19:28:08.974Z,27.20
2022-09-06T19:32:06.651Z,26.70
2022-09-06T19:36:11.560Z,26.80
2022-09-06T19:40:09.868Z,27.25
2022-09-06T19:44:09.019Z,26.84
2022-09-06T19:48:07.406Z,26.82
2022-09-06T19:52:09.606Z,26.60
2022-09-06T19:56:14.909Z,26.60
2022-09-06T20:00:13.025Z,26.48
2022-09-06T20:04:12.393Z,26.44
2022-09-06T20:08:09.438Z,26.27
2022-09-06T20:12:07.775Z,26.36
2022-09-06T20:16:07.627Z,26.24
2022-09-06T20:20:05.788Z,25.89
2022-09-06T20:24:03.194Z,25.76
2022-09-06T20:28:00.282Z,25.90
2022-09-06T20:31:57.413Z,25.75
2022-09-06T20:36:02.878Z,25.67
2022-09-06T20:39:59.935Z,25.65
2022-09-06T20:43:59.627Z,25.48
2022-09-06T20:47:57.765Z,25.53
2022-09-06T20:51:54.755Z,25.53
2022-09-06T20:56:20.644Z,25.63
2022-09-06T21:00:17.759Z,25.56
2022-09-06T21:04:17.648Z,25.21
2022-09-06T21:08:15.700Z,25.37
2022-09-06T21:12:12.681Z,25.18
2022-09-06T21:16:10.261Z,25.08
2022-09-06T21:20:08.131Z,25.10
2022-09-06T21:24:07.412Z,24.93
2022-09-06T21:28:04.562Z,25.00
2022-09-06T21:32:01.737Z,24.98
2022-09-06T21:36:07.098Z,24.84
2022-09-06T21:40:04.636Z,24.79
2022-09-06T21:44:03.616Z,24.84
2022-09-06T21:48:00.630Z,24.53
2022-09-06T21:51:57.602Z,24.56
2022-09-06T21:56:01.633Z,24.45
2022-09-06T21:59:58.621Z,24.60
2022-09-06T22:03:55.835Z,24.43
2022-09-06T22:07:52.790Z,24.48
2022-09-06T22:11:51.420Z,24.34
2022-09-06T22:15:49.277Z,24.30
2022-09-06T22:19:46.321Z,24.45
2022-09-06T22:23:43.361Z,24.23
2022-09-06T22:27:41.105Z,24.49
2022-09-06T22:31:38.537Z,24.24
2022-09-06T22:35:35.623Z,23.88
2022-09-06T22:39:33.075Z,24.04
2022-09-06T22:43:30.198Z,23.92
2022-09-06T22:47:27.238Z,23.85
2022-09-06T22:51:24.717Z,23.81
2022-09-06T22:55:21.710Z,23.70
2022-09-06T22:59:18.718Z,23.71
2022-09-06T23:03:15.890Z,23.76
2022-09-06T23:07:12.983Z,23.86
2022-09-06T23:11:13.850Z,23.76
2022-09-06T23:15:12.173Z,23.57
2022-09-06T23:19:09.232Z,23.36
2022-09-06T23:23:08.423Z,23.31
2022-09-06T23:27:05.817Z,23.57
2022-09-06T23:31:06.003Z,23.54
2022-09-06T23:35:03.284Z,23.33
2022-09-06T23:39:02.471Z,23.34
2022-09-06T23:42:59.524Z,23.32
2022-09-06T23:46:56.607Z,23.17
2022-09-06T23:50:53.951Z,23.24
2022-09-06T23:54:50.942Z,23.28
2022-09-06T23:58:47.926Z,22.88
